Time;durP1;ratioP1;P1;durP2;ratioP2;P2;SDS_P1;SDS_P2;PMS_P1;PMS_P2;Temp;Humidity;BMP_temperature;BMP_pressure;BME280_temperature;BME280_humidity;BME280_pressure;Samples;Min_cycle;Max_cycle;Signal;HPM_P1;HPM_P2
2024/01/25 00:00:44;;;;;;;21.67;4.37;;;;;;;;;;5030504;28;20222;-68
2024/01/25 00:03:11;;;;;;;17.70;4.47;;;;;;;;;;5023371;28;20244;-67
2024/01/25 00:05:38;;;;;;;20.63;4.47;;;;;;;;;;5019156;28;20196;-67
2024/01/25 00:08:05;;;;;;;18.03;4.30;;;;;;;;;;5023073;28;20212;-67
2024/01/25 00:10:32;;;;;;;18.93;4.30;;;;;;;;;;5016742;28;20213;-67
2024/01/25 00:12:59;;;;;;;16.93;4.10;;;;;;;;;;5025073;28;20227;-67
2024/01/25 00:15:28;;;;;;;19.07;4.77;;;;;;;;;;5020954;28;20211;-68
2024/01/25 00:17:56;;;;;;;21.50;4.70;;;;;;;;;;5025396;28;20197;-67
2024/01/25 00:20:23;;;;;;;20.90;5.07;;;;;;;;;;5023748;28;20291;-67
2024/01/25 00:22:50;;;;;;;14.77;4.70;;;;;;;;;;5021898;28;20211;-66
2024/01/25 00:25:18;;;;;;;18.93;4.37;;;;;;;;;;5022558;28;20212;-66
2024/01/25 00:27:47;;;;;;;19.27;4.60;;;;;;;;;;5024678;28;20209;-67
2024/01/25 00:30:14;;;;;;;17.90;5.00;;;;;;;;;;5022838;28;20227;-64
2024/01/25 00:32:42;;;;;;;20.37;4.83;;;;;;;;;;5027440;28;20209;-64
2024/01/25 00:35:10;;;;;;;17.83;4.97;;;;;;;;;;5021228;28;20525;-63
2024/01/25 00:37:38;;;;;;;21.97;4.50;;;;;;;;;;5021244;28;20209;-63
2024/01/25 00:40:05;;;;;;;21.07;4.00;;;;;;;;;;5020635;28;20435;-63
2024/01/25 00:42:33;;;;;;;20.80;4.77;;;;;;;;;;5023383;28;20207;-64
2024/01/25 00:45:01;;;;;;;22.57;5.17;;;;;;;;;;5023354;28;20276;-63
2024/01/25 00:47:28;;;;;;;21.23;4.00;;;;;;;;;;5022971;28;20271;-62
2024/01/25 00:49:57;;;;;;;16.80;4.23;;;;;;;;;;5024197;28;20233;-63
2024/01/25 00:52:25;;;;;;;20.60;4.07;;;;;;;;;;5014594;28;20357;-63
2024/01/25 00:54:52;;;;;;;17.73;4.80;;;;;;;;;;5022712;28;20238;-63
2024/01/25 00:57:18;;;;;;;20.53;4.33;;;;;;;;;;5019350;28;20196;-62
2024/01/25 00:59:46;;;;;;;18.10;4.93;;;;;;;;;;5023965;28;20223;-63
2024/01/25 01:02:14;;;;;;;24.47;4.67;;;;;;;;;;5023266;28;20310;-64
2024/01/25 01:04:42;;;;;;;17.93;4.43;;;;;;;;;;5017625;28;20250;-63
2024/01/25 01:07:11;;;;;;;22.33;4.97;;;;;;;;;;5010772;28;20661;-63
2024/01/25 01:09:38;;;;;;;16.27;3.57;;;;;;;;;;5019681;28;20263;-62
2024/01/25 01:12:05;;;;;;;26.83;5.13;;;;;;;;;;5022814;28;20300;-64
2024/01/25 01:14:32;;;;;;;17.53;3.67;;;;;;;;;;5028882;28;20212;-63
2024/01/25 01:17:00;;;;;;;21.27;4.50;;;;;;;;;;5025376;28;20215;-62
2024/01/25 01:19:27;;;;;;;20.10;4.43;;;;;;;;;;5019170;28;20197;-62
2024/01/25 01:21:54;;;;;;;17.57;4.23;;;;;;;;;;5021369;28;20196;-63
2024/01/25 01:24:22;;;;;;;25.27;5.00;;;;;;;;;;5020929;28;20210;-63
2024/01/25 01:26:50;;;;;;;20.80;4.50;;;;;;;;;;5023877;28;20288;-62
2024/01/25 01:29:17;;;;;;;19.63;4.43;;;;;;;;;;5023703;28;20215;-63
2024/01/25 01:31:44;;;;;;;13.30;3.80;;;;;;;;;;5025629;28;20200;-63
2024/01/25 01:34:12;;;;;;;24.03;4.20;;;;;;;;;;5023622;28;20289;-62
2024/01/25 01:36:39;;;;;;;19.63;4.50;;;;;;;;;;5018707;28;20216;-62
2024/01/25 01:39:06;;;;;;;22.27;5.03;;;;;;;;;;5018461;28;20200;-63
2024/01/25 01:41:35;;;;;;;16.57;4.13;;;;;;;;;;5024535;28;20258;-67
2024/01/25 01:44:02;;;;;;;15.60;3.70;;;;;;;;;;5017677;28;20200;-67
2024/01/25 01:46:33;;;;;;;19.73;4.43;;;;;;;;;;5018800;28;20200;-67
2024/01/25 01:49:01;;;;;;;21.63;4.43;;;;;;;;;;5017128;28;20209;-67
2024/01/25 01:51:28;;;;;;;21.97;4.70;;;;;;;;;;5022340;28;20200;-68
2024/01/25 01:53:55;;;;;;;17.23;4.40;;;;;;;;;;5023885;28;20207;-67
2024/01/25 01:56:22;;;;;;;16.27;3.87;;;;;;;;;;5019361;28;20259;-66
2024/01/25 01:58:51;;;;;;;18.17;4.53;;;;;;;;;;5018662;28;20200;-67
2024/01/25 02:01:19;;;;;;;21.80;4.33;;;;;;;;;;5019817;28;20810;-67
2024/01/25 02:03:46;;;;;;;16.87;4.47;;;;;;;;;;5022749;28;20240;-67
2024/01/25 02:06:13;;;;;;;19.57;4.50;;;;;;;;;;5019125;28;20197;-67
2024/01/25 02:08:41;;;;;;;21.80;4.73;;;;;;;;;;5021891;28;20218;-68
2024/01/25 02:11:08;;;;;;;23.57;4.97;;;;;;;;;;5024286;28;20227;-67
2024/01/25 02:13:36;;;;;;;15.33;3.77;;;;;;;;;;5024145;28;20287;-67
2024/01/25 02:16:04;;;;;;;14.37;4.03;;;;;;;;;;5023267;28;20319;-67
2024/01/25 02:18:32;;;;;;;20.97;4.30;;;;;;;;;;5022721;28;20216;-67
2024/01/25 02:20:59;;;;;;;18.73;4.30;;;;;;;;;;5022850;28;20204;-67
2024/01/25 02:23:28;;;;;;;18.57;4.50;;;;;;;;;;5021399;28;20210;-66
2024/01/25 02:25:55;;;;;;;18.47;4.47;;;;;;;;;;5024488;28;20218;-67
2024/01/25 02:28:22;;;;;;;20.83;4.47;;;;;;;;;;5022107;28;20215;-67
2024/01/25 02:30:49;;;;;;;20.23;4.17;;;;;;;;;;5024839;28;20211;-67
2024/01/25 02:33:16;;;;;;;14.40;4.10;;;;;;;;;;5028600;28;20192;-67
2024/01/25 02:35:43;;;;;;;17.00;4.30;;;;;;;;;;5022546;28;20207;-66
2024/01/25 02:38:10;;;;;;;21.83;4.50;;;;;;;;;;5022562;28;20199;-67
2024/01/25 02:40:39;;;;;;;17.23;4.50;;;;;;;;;;5023960;28;20196;-67
2024/01/25 02:43:06;;;;;;;21.80;4.47;;;;;;;;;;5023151;28;20496;-67
2024/01/25 02:45:33;;;;;;;18.93;4.87;;;;;;;;;;5021094;28;20206;-67
2024/01/25 02:48:01;;;;;;;16.07;4.00;;;;;;;;;;5027506;28;20222;-66
2024/01/25 02:50:28;;;;;;;21.53;4.43;;;;;;;;;;5028849;28;20200;-67
2024/01/25 02:52:56;;;;;;;19.70;4.73;;;;;;;;;;5024048;28;20212;-68
2024/01/25 02:55:23;;;;;;;25.50;4.90;;;;;;;;;;5022066;28;20201;-66
2024/01/25 02:57:51;;;;;;;18.20;4.40;;;;;;;;;;5022077;28;20208;-67
2024/01/25 03:00:18;;;;;;;19.47;4.60;;;;;;;;;;5020352;28;20208;-67
2024/01/25 03:02:46;;;;;;;20.37;4.57;;;;;;;;;;5022608;28;20197;-67
2024/01/25 03:05:13;;;;;;;21.33;4.57;;;;;;;;;;5015133;28;20211;-67
2024/01/25 03:07:40;;;;;;;18.23;4.40;;;;;;;;;;5014701;28;20211;-67
2024/01/25 03:10:07;;;;;;;19.80;4.37;;;;;;;;;;5026023;28;20207;-67
2024/01/25 03:12:34;;;;;;;14.27;3.67;;;;;;;;;;5022953;28;20200;-68
2024/01/25 03:15:03;;;;;;;19.67;4.07;;;;;;;;;;5022459;28;20204;-67
2024/01/25 03:17:30;;;;;;;19.17;4.53;;;;;;;;;;5022692;28;20208;-67
2024/01/25 03:19:57;;;;;;;19.10;4.40;;;;;;;;;;5020893;28;20204;-68
2024/01/25 03:22:24;;;;;;;21.10;4.77;;;;;;;;;;5024533;28;20207;-67
2024/01/25 03:24:52;;;;;;;15.63;4.47;;;;;;;;;;5020852;28;20200;-67
2024/01/25 03:27:19;;;;;;;19.40;4.00;;;;;;;;;;5021492;28;20203;-68
2024/01/25 03:29:46;;;;;;;16.17;3.70;;;;;;;;;;5019652;28;20292;-67
2024/01/25 03:32:14;;;;;;;16.27;4.67;;;;;;;;;;5016521;28;20209;-68
2024/01/25 03:34:41;;;;;;;16.00;4.30;;;;;;;;;;5018957;28;20204;-68
2024/01/25 03:37:09;;;;;;;14.60;3.90;;;;;;;;;;5021739;28;20216;-67
2024/01/25 03:39:36;;;;;;;15.53;3.73;;;;;;;;;;5018260;28;20208;-67
2024/01/25 03:42:03;;;;;;;13.80;3.63;;;;;;;;;;5022699;28;20214;-67
2024/01/25 03:44:30;;;;;;;21.13;4.20;;;;;;;;;;5029857;28;20203;-67
2024/01/25 03:46:57;;;;;;;18.37;4.50;;;;;;;;;;5023764;28;20195;-67
2024/01/25 03:49:26;;;;;;;17.53;4.00;;;;;;;;;;5024463;28;20210;-67
2024/01/25 03:51:53;;;;;;;18.50;4.70;;;;;;;;;;5020113;28;20203;-67
2024/01/25 03:54:20;;;;;;;14.60;4.07;;;;;;;;;;5020650;28;20209;-67
2024/01/25 03:56:47;;;;;;;15.67;3.73;;;;;;;;;;5018610;28;20217;-67
2024/01/25 03:59:14;;;;;;;21.30;4.77;;;;;;;;;;5022204;28;20209;-67
2024/01/25 04:01:46;;;;;;;16.27;3.87;;;;;;;;;;5024617;28;20209;-67
2024/01/25 04:04:15;;;;;;;13.30;3.83;;;;;;;;;;5021460;28;20262;-67
2024/01/25 04:06:44;;;;;;;16.40;3.90;;;;;;;;;;5028076;28;20199;-67
2024/01/25 04:09:11;;;;;;;16.20;3.70;;;;;;;;;;5021031;28;20205;-67
2024/01/25 04:11:38;;;;;;;15.03;3.23;;;;;;;;;;5019882;28;20210;-68
2024/01/25 04:14:05;;;;;;;16.67;3.80;;;;;;;;;;5024089;28;20416;-67
2024/01/25 04:16:33;;;;;;;16.00;3.67;;;;;;;;;;5023785;28;20216;-67
2024/01/25 04:19:00;;;;;;;13.50;3.83;;;;;;;;;;5020490;28;20290;-68
2024/01/25 04:21:27;;;;;;;16.50;4.43;;;;;;;;;;5024035;28;20201;-67
2024/01/25 04:23:56;;;;;;;16.80;4.10;;;;;;;;;;5020892;28;20216;-68
2024/01/25 04:26:23;;;;;;;18.20;4.10;;;;;;;;;;5020053;28;20272;-67
2024/01/25 04:28:51;;;;;;;17.17;3.97;;;;;;;;;;5018603;28;20226;-67
2024/01/25 04:31:19;;;;;;;12.27;3.63;;;;;;;;;;5020178;28;20201;-67
2024/01/25 04:33:46;;;;;;;15.60;3.40;;;;;;;;;;5019657;28;20292;-67
2024/01/25 04:36:13;;;;;;;14.77;3.77;;;;;;;;;;5026457;28;20219;-66
2024/01/25 04:38:40;;;;;;;24.80;4.57;;;;;;;;;;5023181;28;20207;-67
2024/01/25 04:41:09;;;;;;;15.30;4.13;;;;;;;;;;5018008;28;20196;-67
2024/01/25 04:43:36;;;;;;;18.27;4.07;;;;;;;;;;5025187;28;20300;-67
2024/01/25 04:46:04;;;;;;;19.73;4.10;;;;;;;;;;5021879;28;20212;-68
2024/01/25 04:48:31;;;;;;;15.70;4.07;;;;;;;;;;5016303;28;20197;-67
2024/01/25 04:50:59;;;;;;;12.40;3.07;;;;;;;;;;5028076;28;20209;-68
2024/01/25 04:53:26;;;;;;;17.00;4.13;;;;;;;;;;5023879;28;20197;-68
2024/01/25 04:55:54;;;;;;;17.33;4.93;;;;;;;;;;5015569;28;20204;-67
2024/01/25 04:58:23;;;;;;;14.53;4.00;;;;;;;;;;5021533;28;20230;-67
2024/01/25 05:00:52;;;;;;;15.87;4.53;;;;;;;;;;5020737;28;20211;-67
2024/01/25 05:03:19;;;;;;;12.13;4.20;;;;;;;;;;5021073;28;20235;-67
2024/01/25 05:05:46;;;;;;;17.73;4.93;;;;;;;;;;5025691;28;20212;-66
2024/01/25 05:08:14;;;;;;;15.53;4.30;;;;;;;;;;5008878;28;20215;-67
2024/01/25 05:10:41;;;;;;;15.93;3.60;;;;;;;;;;5011809;28;20193;-62
2024/01/25 05:13:09;;;;;;;18.93;4.17;;;;;;;;;;5023553;28;20200;-63
2024/01/25 05:15:37;;;;;;;19.23;4.07;;;;;;;;;;5020269;28;20231;-63
2024/01/25 05:18:04;;;;;;;17.47;3.70;;;;;;;;;;5018200;28;20216;-64
2024/01/25 05:20:33;;;;;;;21.77;4.10;;;;;;;;;;5020711;28;20201;-64
2024/01/25 05:23:01;;;;;;;17.53;4.90;;;;;;;;;;5023012;28;20207;-63
2024/01/25 05:25:28;;;;;;;17.13;4.80;;;;;;;;;;5016403;28;20262;-63
2024/01/25 05:27:55;;;;;;;21.67;5.80;;;;;;;;;;5017320;28;20199;-63
2024/01/25 05:30:23;;;;;;;18.23;5.80;;;;;;;;;;5014020;28;20200;-63
2024/01/25 05:32:53;;;;;;;18.10;4.57;;;;;;;;;;5021302;28;20267;-62
2024/01/25 05:35:23;;;;;;;17.20;4.07;;;;;;;;;;5017495;28;20200;-63
2024/01/25 05:37:51;;;;;;;17.73;4.27;;;;;;;;;;5017791;28;20219;-62
2024/01/25 05:40:22;;;;;;;15.43;4.63;;;;;;;;;;5018202;28;20196;-63
2024/01/25 05:42:49;;;;;;;23.33;4.70;;;;;;;;;;5011047;28;20224;-64
2024/01/25 05:45:19;;;;;;;20.73;5.00;;;;;;;;;;5021090;28;20254;-63
2024/01/25 05:47:46;;;;;;;21.80;4.47;;;;;;;;;;5021964;28;20201;-62
2024/01/25 05:50:15;;;;;;;21.43;5.03;;;;;;;;;;5023091;28;20200;-63
2024/01/25 05:52:42;;;;;;;23.43;4.83;;;;;;;;;;5022197;28;20200;-62
2024/01/25 05:55:09;;;;;;;22.67;5.03;;;;;;;;;;5026188;28;20270;-63
2024/01/25 05:57:37;;;;;;;20.50;4.57;;;;;;;;;;5025609;28;20216;-62
2024/01/25 06:00:05;;;;;;;19.40;4.90;;;;;;;;;;5017624;28;20213;-64
2024/01/25 06:02:32;;;;;;;21.03;4.93;;;;;;;;;;5023529;28;20224;-63
2024/01/25 06:04:59;;;;;;;23.60;5.27;;;;;;;;;;5022456;28;20201;-63
2024/01/25 06:07:28;;;;;;;22.20;4.90;;;;;;;;;;5022755;28;20250;-62
2024/01/25 06:09:55;;;;;;;20.67;4.57;;;;;;;;;;5022207;28;20204;-63
2024/01/25 06:12:22;;;;;;;20.40;4.63;;;;;;;;;;5020588;28;20212;-64
2024/01/25 06:14:49;;;;;;;21.20;4.60;;;;;;;;;;5020979;28;20223;-63
2024/01/25 06:17:16;;;;;;;20.83;4.37;;;;;;;;;;5021510;28;20244;-62
2024/01/25 06:19:43;;;;;;;22.97;4.70;;;;;;;;;;5018187;28;20204;-66
2024/01/25 06:22:12;;;;;;;21.53;5.00;;;;;;;;;;5015908;28;20205;-62
2024/01/25 06:24:40;;;;;;;19.57;4.57;;;;;;;;;;5019315;28;20327;-63
2024/01/25 06:27:07;;;;;;;20.43;4.87;;;;;;;;;;5020606;28;20201;-62
2024/01/25 06:29:34;;;;;;;24.23;4.77;;;;;;;;;;5022311;28;20204;-64
2024/01/25 06:32:02;;;;;;;25.03;5.20;;;;;;;;;;5017440;28;20208;-63
2024/01/25 06:34:29;;;;;;;20.20;4.57;;;;;;;;;;5020199;28;20303;-62
2024/01/25 06:36:56;;;;;;;18.77;4.43;;;;;;;;;;5022194;28;20307;-62
2024/01/25 06:39:23;;;;;;;19.23;4.17;;;;;;;;;;5018799;28;20204;-64
2024/01/25 06:41:52;;;;;;;15.93;4.43;;;;;;;;;;5022147;28;20200;-64
2024/01/25 06:44:19;;;;;;;15.87;4.17;;;;;;;;;;5023449;28;20208;-63
2024/01/25 06:46:46;;;;;;;18.77;4.40;;;;;;;;;;5022959;28;20201;-64
2024/01/25 06:49:13;;;;;;;22.70;4.77;;;;;;;;;;5018314;28;20219;-63
2024/01/25 06:51:40;;;;;;;24.03;5.03;;;;;;;;;;5019455;28;20236;-63
2024/01/25 06:54:07;;;;;;;18.00;3.97;;;;;;;;;;5020700;28;20201;-63
2024/01/25 06:56:34;;;;;;;18.83;4.00;;;;;;;;;;5015859;28;20203;-63
2024/01/25 06:59:03;;;;;;;20.90;4.50;;;;;;;;;;5015784;28;20216;-64
2024/01/25 07:01:30;;;;;;;15.00;4.37;;;;;;;;;;5024207;28;20219;-62
2024/01/25 07:03:57;;;;;;;20.60;4.63;;;;;;;;;;5012822;28;20283;-62
2024/01/25 07:06:26;;;;;;;16.63;4.53;;;;;;;;;;5016151;28;20196;-64
2024/01/25 07:08:54;;;;;;;12.73;3.63;;;;;;;;;;5017935;28;20197;-62
2024/01/25 07:11:21;;;;;;;15.63;4.53;;;;;;;;;;5020569;28;20193;-62
2024/01/25 07:13:48;;;;;;;22.03;4.73;;;;;;;;;;5023198;28;20207;-62
2024/01/25 07:16:16;;;;;;;23.57;5.23;;;;;;;;;;5025386;28;20211;-63
2024/01/25 07:18:43;;;;;;;14.77;4.20;;;;;;;;;;5021199;28;20212;-63
2024/01/25 07:21:10;;;;;;;12.77;4.10;;;;;;;;;;5019354;28;20204;-62
2024/01/25 07:23:38;;;;;;;16.80;3.67;;;;;;;;;;5026061;28;20200;-62
2024/01/25 07:26:05;;;;;;;14.70;3.83;;;;;;;;;;5021387;28;20211;-63
2024/01/25 07:28:32;;;;;;;17.23;4.33;;;;;;;;;;5017987;28;20201;-63
2024/01/25 07:30:59;;;;;;;18.87;4.27;;;;;;;;;;5019280;28;20205;-62
2024/01/25 07:33:28;;;;;;;15.03;3.87;;;;;;;;;;5021140;28;20212;-63
2024/01/25 07:35:58;;;;;;;14.07;3.50;;;;;;;;;;5018894;28;20211;-63
2024/01/25 07:38:25;;;;;;;15.43;3.70;;;;;;;;;;5024406;28;20220;-62
2024/01/25 07:40:52;;;;;;;18.83;4.37;;;;;;;;;;5026970;28;20200;-67
2024/01/25 07:43:19;;;;;;;19.80;4.43;;;;;;;;;;5020744;28;20255;-67
2024/01/25 07:45:47;;;;;;;18.93;4.30;;;;;;;;;;5016775;28;20212;-67
2024/01/25 07:48:14;;;;;;;16.43;4.73;;;;;;;;;;5019266;28;20208;-67
2024/01/25 07:50:42;;;;;;;17.23;4.03;;;;;;;;;;5021213;28;20201;-67
2024/01/25 07:53:10;;;;;;;15.27;3.80;;;;;;;;;;5020087;28;20205;-67
2024/01/25 07:55:38;;;;;;;17.23;4.13;;;;;;;;;;5021473;28;20263;-67
2024/01/25 07:58:05;;;;;;;18.03;4.33;;;;;;;;;;5022657;28;20224;-67
2024/01/25 08:00:32;;;;;;;18.63;3.80;;;;;;;;;;5021049;28;20192;-67
2024/01/25 08:02:59;;;;;;;14.93;4.17;;;;;;;;;;5020274;28;20232;-67
2024/01/25 08:05:26;;;;;;;15.53;3.93;;;;;;;;;;5023934;28;20196;-67
2024/01/25 08:07:54;;;;;;;15.70;4.27;;;;;;;;;;5019889;28;20205;-67
2024/01/25 08:10:22;;;;;;;22.27;4.63;;;;;;;;;;5014134;28;20231;-67
2024/01/25 08:12:49;;;;;;;17.83;4.30;;;;;;;;;;5019685;28;20207;-67
2024/01/25 08:15:16;;;;;;;14.30;4.40;;;;;;;;;;5015214;28;20212;-68
2024/01/25 08:17:43;;;;;;;18.77;4.97;;;;;;;;;;5020647;28;20216;-67
2024/01/25 08:20:13;;;;;;;20.60;5.17;;;;;;;;;;5017013;28;20222;-67
2024/01/25 08:22:40;;;;;;;21.40;4.93;;;;;;;;;;5019202;28;20201;-67
2024/01/25 08:25:09;;;;;;;25.63;5.27;;;;;;;;;;5018241;28;20200;-67
2024/01/25 08:27:36;;;;;;;27.20;5.67;;;;;;;;;;5019057;28;20204;-67
2024/01/25 08:30:04;;;;;;;31.10;5.43;;;;;;;;;;5014489;28;20205;-66
2024/01/25 08:32:31;;;;;;;21.03;5.13;;;;;;;;;;5018038;28;20210;-66
2024/01/25 08:34:58;;;;;;;22.80;5.20;;;;;;;;;;5019585;28;20213;-67
2024/01/25 08:37:25;;;;;;;28.30;5.43;;;;;;;;;;5015776;28;20206;-67
2024/01/25 08:39:52;;;;;;;26.97;5.97;;;;;;;;;;5016718;28;20259;-67
2024/01/25 08:42:21;;;;;;;26.03;5.67;;;;;;;;;;5020429;28;20199;-67
2024/01/25 08:44:49;;;;;;;33.10;5.67;;;;;;;;;;5020419;28;20204;-65
2024/01/25 08:47:17;;;;;;;28.00;5.37;;;;;;;;;;5020601;28;20202;-67
2024/01/25 08:49:44;;;;;;;31.10;5.90;;;;;;;;;;5015504;28;20206;-67
2024/01/25 08:52:11;;;;;;;24.73;5.50;;;;;;;;;;5021054;28;20201;-62
2024/01/25 08:54:38;;;;;;;23.50;5.27;;;;;;;;;;5019507;28;20208;-63
2024/01/25 08:57:06;;;;;;;19.77;4.57;;;;;;;;;;5021419;28;20204;-62
2024/01/25 08:59:37;;;;;;;24.23;5.97;;;;;;;;;;5026546;28;20208;-62
2024/01/25 09:02:05;;;;;;;23.47;5.30;;;;;;;;;;5020560;28;20203;-62
2024/01/25 09:04:32;;;;;;;19.70;4.80;;;;;;;;;;5022581;28;20302;-62
2024/01/25 09:07:00;;;;;;;23.63;5.20;;;;;;;;;;5017240;28;20263;-62
2024/01/25 09:09:27;;;;;;;24.57;5.67;;;;;;;;;;5015328;28;20217;-64
2024/01/25 09:11:54;;;;;;;26.63;5.20;;;;;;;;;;5022380;28;20223;-64
2024/01/25 09:14:22;;;;;;;33.17;5.23;;;;;;;;;;5025054;28;20196;-63
2024/01/25 09:16:51;;;;;;;19.07;5.03;;;;;;;;;;5023056;28;20205;-62
2024/01/25 09:19:18;;;;;;;27.00;5.73;;;;;;;;;;5023518;28;20228;-62
2024/01/25 09:21:45;;;;;;;24.73;5.00;;;;;;;;;;5021898;28;20296;-64
2024/01/25 09:24:13;;;;;;;30.87;5.70;;;;;;;;;;5025972;28;20207;-62
2024/01/25 09:26:42;;;;;;;24.17;6.10;;;;;;;;;;5028731;28;20201;-63
2024/01/25 09:29:10;;;;;;;32.43;5.37;;;;;;;;;;5028060;28;20256;-62
2024/01/25 09:31:37;;;;;;;22.57;5.57;;;;;;;;;;5033392;28;20192;-62
2024/01/25 09:34:06;;;;;;;27.10;5.50;;;;;;;;;;5023064;28;20203;-63
2024/01/25 09:36:33;;;;;;;22.47;5.50;;;;;;;;;;5027670;28;20215;-62
2024/01/25 09:39:00;;;;;;;27.70;5.63;;;;;;;;;;5028213;28;20212;-62
2024/01/25 09:41:28;;;;;;;20.63;5.60;;;;;;;;;;5027887;28;20203;-62
2024/01/25 09:43:55;;;;;;;20.83;5.30;;;;;;;;;;5024256;28;20206;-63
2024/01/25 09:46:22;;;;;;;20.77;4.93;;;;;;;;;;5020417;28;20328;-63
2024/01/25 09:48:50;;;;;;;24.97;5.00;;;;;;;;;;5026948;28;20196;-63
2024/01/25 09:51:19;;;;;;;24.07;5.03;;;;;;;;;;5031436;28;20200;-62
2024/01/25 09:53:47;;;;;;;26.47;5.63;;;;;;;;;;5020349;28;20231;-64
2024/01/25 09:56:15;;;;;;;21.93;5.60;;;;;;;;;;5026582;28;20224;-62
2024/01/25 09:58:45;;;;;;;29.77;6.37;;;;;;;;;;5030721;28;20220;-63
2024/01/25 10:01:13;;;;;;;20.67;4.87;;;;;;;;;;5027616;28;20271;-67
2024/01/25 10:03:41;;;;;;;19.73;5.63;;;;;;;;;;5018913;28;20243;-67
2024/01/25 10:06:08;;;;;;;22.20;5.07;;;;;;;;;;5025409;28;20231;-67
2024/01/25 10:08:36;;;;;;;19.90;5.07;;;;;;;;;;5015822;28;20216;-66
2024/01/25 10:11:04;;;;;;;20.37;5.17;;;;;;;;;;5025920;28;20208;-66
2024/01/25 10:13:31;;;;;;;23.57;5.03;;;;;;;;;;5018588;28;20232;-66
2024/01/25 10:15:58;;;;;;;16.67;4.87;;;;;;;;;;5027183;28;20292;-67
2024/01/25 10:18:27;;;;;;;18.60;4.90;;;;;;;;;;5023874;28;20216;-66
2024/01/25 10:20:55;;;;;;;20.40;5.33;;;;;;;;;;5020743;28;20214;-66
2024/01/25 10:23:23;;;;;;;20.33;5.57;;;;;;;;;;5031955;28;20204;-66
2024/01/25 10:25:51;;;;;;;18.87;4.77;;;;;;;;;;5027566;28;20200;-66
2024/01/25 10:28:18;;;;;;;16.87;5.27;;;;;;;;;;5029083;28;20287;-65
2024/01/25 10:30:45;;;;;;;23.33;5.17;;;;;;;;;;5021317;28;20262;-66
2024/01/25 10:33:13;;;;;;;23.00;5.67;;;;;;;;;;5023253;28;20197;-66
2024/01/25 10:35:41;;;;;;;22.10;5.43;;;;;;;;;;5020238;28;20199;-66
2024/01/25 10:38:09;;;;;;;22.70;5.37;;;;;;;;;;5024864;28;20212;-66
2024/01/25 10:40:36;;;;;;;19.60;5.10;;;;;;;;;;5020449;28;20216;-67
2024/01/25 10:43:05;;;;;;;24.13;5.87;;;;;;;;;;5020172;28;20201;-66
2024/01/25 10:45:32;;;;;;;24.43;5.13;;;;;;;;;;5020056;28;20207;-66
2024/01/25 10:48:01;;;;;;;23.10;5.17;;;;;;;;;;5016032;28;20200;-66
2024/01/25 10:50:28;;;;;;;20.97;4.90;;;;;;;;;;5022271;28;20207;-66
2024/01/25 10:52:55;;;;;;;23.53;4.83;;;;;;;;;;5020814;28;20196;-66
2024/01/25 10:55:23;;;;;;;21.67;5.03;;;;;;;;;;5022871;28;20220;-66
2024/01/25 10:57:50;;;;;;;21.30;5.20;;;;;;;;;;5020082;28;20207;-66
2024/01/25 11:00:19;;;;;;;19.63;4.67;;;;;;;;;;5019411;28;20232;-66
2024/01/25 11:02:46;;;;;;;23.93;5.67;;;;;;;;;;5020373;28;20201;-66
2024/01/25 11:05:14;;;;;;;16.60;4.97;;;;;;;;;;5018606;28;20205;-67
2024/01/25 11:07:45;;;;;;;16.83;4.60;;;;;;;;;;5020138;28;20196;-66
2024/01/25 11:10:15;;;;;;;23.37;5.57;;;;;;;;;;5018666;28;20196;-67
2024/01/25 11:12:52;;;;;;;23.00;5.50;;;;;;;;;;5022952;28;20224;-66
2024/01/25 11:15:23;;;;;;;21.53;5.27;;;;;;;;;;5023139;28;20255;-66
2024/01/25 11:17:54;;;;;;;21.20;6.07;;;;;;;;;;5026918;28;20196;-66
2024/01/25 11:20:22;;;;;;;24.33;6.37;;;;;;;;;;5023077;28;20208;-66
2024/01/25 11:22:50;;;;;;;20.07;5.60;;;;;;;;;;5020976;28;20206;-66
2024/01/25 11:25:21;;;;;;;27.47;5.43;;;;;;;;;;5021697;28;20263;-66
2024/01/25 11:27:49;;;;;;;21.90;5.77;;;;;;;;;;5014873;28;20205;-65
2024/01/25 11:30:18;;;;;;;24.83;5.87;;;;;;;;;;5020209;28;20197;-66
2024/01/25 11:32:47;;;;;;;21.93;5.83;;;;;;;;;;5016842;28;20203;-66
2024/01/25 11:35:16;;;;;;;22.83;7.20;;;;;;;;;;5018757;28;20213;-66
2024/01/25 11:37:44;;;;;;;22.73;5.83;;;;;;;;;;5018382;28;20259;-67
2024/01/25 11:40:12;;;;;;;23.07;6.03;;;;;;;;;;5020137;28;20216;-66
2024/01/25 11:42:39;;;;;;;21.13;5.67;;;;;;;;;;5023305;28;20200;-66
2024/01/25 11:45:07;;;;;;;28.67;6.20;;;;;;;;;;5022761;28;20196;-66
2024/01/25 11:47:34;;;;;;;25.10;6.33;;;;;;;;;;5017993;28;20210;-66
2024/01/25 11:50:03;;;;;;;30.03;6.47;;;;;;;;;;5020880;28;20400;-66
2024/01/25 11:52:31;;;;;;;32.93;12.20;;;;;;;;;;5019411;28;20321;-66
2024/01/25 11:54:59;;;;;;;20.37;5.80;;;;;;;;;;5020228;28;20266;-66
2024/01/25 11:57:26;;;;;;;26.77;6.37;;;;;;;;;;5021082;28;20208;-66
2024/01/25 11:59:53;;;;;;;24.07;6.60;;;;;;;;;;5020144;28;20213;-66
2024/01/25 12:02:21;;;;;;;21.60;6.07;;;;;;;;;;5019095;28;20197;-66
2024/01/25 12:04:48;;;;;;;25.00;7.60;;;;;;;;;;5015644;28;20311;-66
2024/01/25 12:07:16;;;;;;;21.80;6.53;;;;;;;;;;5020280;28;20216;-66
2024/01/25 12:09:43;;;;;;;27.93;6.90;;;;;;;;;;5021413;28;20203;-65
2024/01/25 12:12:11;;;;;;;24.43;6.77;;;;;;;;;;5019907;28;20201;-66
2024/01/25 12:14:38;;;;;;;25.60;6.30;;;;;;;;;;5016589;28;20203;-66
2024/01/25 12:17:05;;;;;;;25.20;5.50;;;;;;;;;;5021685;28;20219;-66
2024/01/25 12:19:32;;;;;;;22.27;6.07;;;;;;;;;;5019925;28;20223;-66
2024/01/25 12:21:59;;;;;;;24.10;6.20;;;;;;;;;;5015657;28;20204;-66
2024/01/25 12:24:28;;;;;;;23.57;5.97;;;;;;;;;;5020496;28;20196;-66
2024/01/25 12:26:56;;;;;;;24.13;6.03;;;;;;;;;;5019978;28;20211;-66
2024/01/25 12:29:23;;;;;;;24.33;6.17;;;;;;;;;;5020525;28;20197;-67
2024/01/25 12:31:50;;;;;;;22.97;6.47;;;;;;;;;;5020956;28;20206;-66
2024/01/25 12:34:17;;;;;;;21.10;5.13;;;;;;;;;;5018279;28;20208;-66
2024/01/25 12:36:44;;;;;;;23.43;5.97;;;;;;;;;;5018304;28;20219;-66
2024/01/25 12:39:13;;;;;;;18.30;5.30;;;;;;;;;;5016516;28;20213;-66
2024/01/25 12:41:43;;;;;;;28.57;6.93;;;;;;;;;;5024237;28;20204;-66
2024/01/25 12:44:10;;;;;;;25.53;5.93;;;;;;;;;;5015476;28;20283;-66
2024/01/25 12:46:37;;;;;;;24.57;5.20;;;;;;;;;;5020237;28;20211;-66
2024/01/25 12:49:04;;;;;;;20.77;5.37;;;;;;;;;;5022562;28;20200;-66
2024/01/25 12:51:31;;;;;;;22.57;6.07;;;;;;;;;;5022478;28;20216;-66
2024/01/25 12:53:58;;;;;;;20.63;5.20;;;;;;;;;;5015599;28;20225;-66
2024/01/25 12:56:25;;;;;;;23.10;5.87;;;;;;;;;;5018209;28;20205;-66
2024/01/25 12:58:54;;;;;;;25.20;5.67;;;;;;;;;;5017461;28;20204;-67
2024/01/25 13:01:21;;;;;;;23.00;5.33;;;;;;;;;;5018228;28;20214;-66
2024/01/25 13:03:48;;;;;;;23.43;6.33;;;;;;;;;;5018222;28;20240;-66
2024/01/25 13:06:16;;;;;;;18.60;4.80;;;;;;;;;;5020528;28;20200;-66
2024/01/25 13:08:43;;;;;;;19.07;5.27;;;;;;;;;;5017550;28;20244;-66
2024/01/25 13:11:10;;;;;;;14.67;4.23;;;;;;;;;;5017121;28;20204;-68
2024/01/25 13:13:37;;;;;;;19.07;4.00;;;;;;;;;;5019599;28;20297;-66
2024/01/25 13:16:07;;;;;;;17.43;4.43;;;;;;;;;;5017717;28;20214;-66
2024/01/25 13:18:34;;;;;;;15.17;4.03;;;;;;;;;;5016823;28;20202;-66
2024/01/25 13:21:01;;;;;;;20.83;4.07;;;;;;;;;;5015725;28;20263;-66
2024/01/25 13:23:28;;;;;;;12.53;3.60;;;;;;;;;;5019721;28;20204;-66
2024/01/25 13:25:55;;;;;;;12.20;3.80;;;;;;;;;;5013550;28;20197;-66
2024/01/25 13:28:22;;;;;;;13.43;4.27;;;;;;;;;;5018948;28;20201;-65
2024/01/25 13:30:49;;;;;;;15.07;4.37;;;;;;;;;;5017823;28;20201;-66
2024/01/25 13:33:18;;;;;;;10.33;3.20;;;;;;;;;;5016288;28;20211;-66
2024/01/25 13:35:45;;;;;;;12.53;3.80;;;;;;;;;;5018853;28;20424;-66
2024/01/25 13:38:14;;;;;;;10.57;3.30;;;;;;;;;;5017973;28;20296;-66
2024/01/25 13:40:41;;;;;;;10.87;3.23;;;;;;;;;;5016052;28;20281;-66
2024/01/25 13:43:08;;;;;;;8.97;2.67;;;;;;;;;;5015914;28;20217;-66
2024/01/25 13:45:35;;;;;;;9.37;2.87;;;;;;;;;;5014976;28;20204;-66
2024/01/25 13:48:02;;;;;;;9.00;2.50;;;;;;;;;;5020764;28;20205;-66
2024/01/25 13:50:31;;;;;;;8.37;2.60;;;;;;;;;;5015079;28;20201;-66
2024/01/25 13:52:58;;;;;;;7.77;2.87;;;;;;;;;;5016034;28;20231;-66
2024/01/25 13:55:25;;;;;;;6.20;2.33;;;;;;;;;;5020123;28;20204;-66
2024/01/25 13:57:52;;;;;;;9.10;2.67;;;;;;;;;;5016907;28;20200;-66
2024/01/25 14:00:20;;;;;;;9.50;3.20;;;;;;;;;;5016300;28;20216;-66
2024/01/25 14:02:47;;;;;;;10.07;2.60;;;;;;;;;;5018848;28;20236;-66
2024/01/25 14:05:15;;;;;;;7.17;2.50;;;;;;;;;;5027041;28;20200;-66
2024/01/25 14:07:43;;;;;;;9.07;3.00;;;;;;;;;;5023677;28;20208;-66
2024/01/25 14:10:10;;;;;;;9.37;2.97;;;;;;;;;;5023145;28;20205;-66
2024/01/25 14:12:38;;;;;;;8.27;3.20;;;;;;;;;;5022020;28;20471;-66
2024/01/25 14:15:05;;;;;;;5.33;2.60;;;;;;;;;;5023920;28;20204;-66
2024/01/25 14:17:32;;;;;;;8.83;2.83;;;;;;;;;;5020956;28;20200;-66
2024/01/25 14:19:59;;;;;;;6.63;2.50;;;;;;;;;;5021532;28;20234;-66
2024/01/25 14:22:28;;;;;;;7.23;2.80;;;;;;;;;;5024105;28;20213;-66
2024/01/25 14:24:56;;;;;;;8.10;3.13;;;;;;;;;;5018565;28;20201;-66
2024/01/25 14:27:23;;;;;;;8.13;2.77;;;;;;;;;;5020226;28;20199;-66
2024/01/25 14:29:50;;;;;;;7.97;2.43;;;;;;;;;;5024572;28;20212;-66
2024/01/25 14:32:19;;;;;;;5.00;2.83;;;;;;;;;;5018239;28;20211;-66